KSBD/SBD METAR and TAF weather

Enter ICAO airport designator
Station Type Date Time Source
KSBD METAR 2019/12/08 23:52 UTC NOAA

KSBD 082352Z 24005KT 3SM RA SCT008 BKN011 OVC050 14/11 A3001


Station Type Date Time Source
KSBD Decoded METAR 2019/12/08 23:52 UTC NOAA

Norton Air Force Base / San Bern, CA, United States (KSBD) 34-06N 117-14W
Dec 08, 2019 - 06:52 PM EST / 2019.12.08 2352 UTC
Wind: from the WSW (240 degrees) at 6 MPH (5 KT):0
Visibility: 3 mile(s):0
Sky conditions: overcast
Weather: rain
Temperature: 57 F (14 C)
Dew Point: 51 F (11 C)
Relative Humidity: 82%
Pressure (altimeter): 30.01 in. Hg (1016 hPa)
ob: KSBD 082352Z 24005KT 3SM RA SCT008 BKN011 OVC050 14/11 A3001
cycle: 0

Station Type Date Time Source
KSBD TAF 2019/12/08 18:22 UTC NOAA

TAF KSBD 081720Z 0818/0918 VRB04KT 3SM BR VCSH SCT006 BKN012 OVC030
TEMPO 0818/0821 BKN006
FM082100 25008KT 5SM BR VCSH SCT015 BKN030
FM090300 VRB05KT 4SM BR VCSH BKN015 OVC025
FM091200 VRB04KT P6SM SCT015

Example: see airport list